sensor_id;sensor_type;location;lat;lon;timestamp;P1;durP1;ratioP1;P2;durP2;ratioP2
25073;SDS011;13066;52.042;5.648;2023-07-16T00:00:24;5.20;;;2.22;;
25073;SDS011;13066;52.042;5.648;2023-07-16T00:02:53;11.23;;;2.60;;
25073;SDS011;13066;52.042;5.648;2023-07-16T00:05:22;5.60;;;2.33;;
25073;SDS011;13066;52.042;5.648;2023-07-16T00:07:50;8.85;;;2.53;;
25073;SDS011;13066;52.042;5.648;2023-07-16T00:10:18;10.57;;;3.10;;
25073;SDS011;13066;52.042;5.648;2023-07-16T00:12:45;11.63;;;2.85;;
25073;SDS011;13066;52.042;5.648;2023-07-16T00:15:14;9.43;;;2.63;;
25073;SDS011;13066;52.042;5.648;2023-07-16T00:17:43;8.23;;;2.65;;
25073;SDS011;13066;52.042;5.648;2023-07-16T00:20:11;8.50;;;2.45;;
25073;SDS011;13066;52.042;5.648;2023-07-16T00:22:39;10.75;;;3.13;;
25073;SDS011;13066;52.042;5.648;2023-07-16T00:25:07;7.88;;;2.38;;
25073;SDS011;13066;52.042;5.648;2023-07-16T00:27:36;11.43;;;2.67;;
25073;SDS011;13066;52.042;5.648;2023-07-16T00:30:04;5.75;;;2.38;;
25073;SDS011;13066;52.042;5.648;2023-07-16T00:32:33;9.80;;;2.63;;
25073;SDS011;13066;52.042;5.648;2023-07-16T00:35:02;8.38;;;2.78;;
25073;SDS011;13066;52.042;5.648;2023-07-16T00:37:33;15.13;;;2.92;;
25073;SDS011;13066;52.042;5.648;2023-07-16T00:40:01;11.63;;;2.55;;
25073;SDS011;13066;52.042;5.648;2023-07-16T00:42:29;8.23;;;2.67;;
25073;SDS011;13066;52.042;5.648;2023-07-16T00:44:57;10.05;;;2.85;;
25073;SDS011;13066;52.042;5.648;2023-07-16T00:47:25;10.93;;;2.72;;
25073;SDS011;13066;52.042;5.648;2023-07-16T00:49:53;7.10;;;2.53;;
25073;SDS011;13066;52.042;5.648;2023-07-16T00:52:22;7.30;;;2.80;;
25073;SDS011;13066;52.042;5.648;2023-07-16T00:54:50;11.43;;;2.90;;
25073;SDS011;13066;52.042;5.648;2023-07-16T00:57:18;16.65;;;3.15;;
25073;SDS011;13066;52.042;5.648;2023-07-16T00:59:46;13.30;;;2.63;;
25073;SDS011;13066;52.042;5.648;2023-07-16T01:02:15;10.55;;;2.67;;
25073;SDS011;13066;52.042;5.648;2023-07-16T01:04:43;9.40;;;2.85;;
25073;SDS011;13066;52.042;5.648;2023-07-16T01:07:11;11.27;;;3.05;;
25073;SDS011;13066;52.042;5.648;2023-07-16T01:09:43;7.10;;;2.38;;
25073;SDS011;13066;52.042;5.648;2023-07-16T01:12:12;8.88;;;2.72;;
25073;SDS011;13066;52.042;5.648;2023-07-16T01:14:41;10.90;;;2.92;;
25073;SDS011;13066;52.042;5.648;2023-07-16T01:17:09;8.18;;;2.90;;
25073;SDS011;13066;52.042;5.648;2023-07-16T01:19:37;11.05;;;3.28;;
25073;SDS011;13066;52.042;5.648;2023-07-16T01:22:10;8.70;;;3.00;;
25073;SDS011;13066;52.042;5.648;2023-07-16T01:25:19;14.93;;;3.10;;
25073;SDS011;13066;52.042;5.648;2023-07-16T01:30:56;9.45;;;3.22;;
25073;SDS011;13066;52.042;5.648;2023-07-16T01:33:26;14.30;;;3.58;;
25073;SDS011;13066;52.042;5.648;2023-07-16T01:35:54;9.30;;;2.95;;
25073;SDS011;13066;52.042;5.648;2023-07-16T01:38:23;9.75;;;2.38;;
25073;SDS011;13066;52.042;5.648;2023-07-16T01:40:51;13.98;;;3.03;;
25073;SDS011;13066;52.042;5.648;2023-07-16T01:43:19;8.77;;;3.10;;
25073;SDS011;13066;52.042;5.648;2023-07-16T01:45:46;17.20;;;4.45;;
25073;SDS011;13066;52.042;5.648;2023-07-16T01:48:22;7.97;;;2.67;;
25073;SDS011;13066;52.042;5.648;2023-07-16T01:50:55;9.88;;;2.95;;
25073;SDS011;13066;52.042;5.648;2023-07-16T01:53:23;10.05;;;2.80;;
25073;SDS011;13066;52.042;5.648;2023-07-16T01:55:51;8.65;;;2.97;;
25073;SDS011;13066;52.042;5.648;2023-07-16T01:58:19;10.57;;;2.97;;
25073;SDS011;13066;52.042;5.648;2023-07-16T02:00:49;10.68;;;3.25;;
25073;SDS011;13066;52.042;5.648;2023-07-16T02:03:18;5.28;;;2.85;;
25073;SDS011;13066;52.042;5.648;2023-07-16T02:05:47;11.02;;;2.85;;
25073;SDS011;13066;52.042;5.648;2023-07-16T02:08:16;16.55;;;4.18;;
25073;SDS011;13066;52.042;5.648;2023-07-16T02:10:44;16.20;;;3.70;;
25073;SDS011;13066;52.042;5.648;2023-07-16T02:13:12;12.07;;;3.40;;
25073;SDS011;13066;52.042;5.648;2023-07-16T02:15:40;13.82;;;3.30;;
25073;SDS011;13066;52.042;5.648;2023-07-16T02:18:08;14.60;;;3.35;;
25073;SDS011;13066;52.042;5.648;2023-07-16T02:20:37;12.13;;;3.22;;
25073;SDS011;13066;52.042;5.648;2023-07-16T02:23:05;10.10;;;3.35;;
25073;SDS011;13066;52.042;5.648;2023-07-16T02:25:33;10.43;;;3.10;;
25073;SDS011;13066;52.042;5.648;2023-07-16T02:28:01;13.50;;;3.65;;
25073;SDS011;13066;52.042;5.648;2023-07-16T02:30:29;17.73;;;3.20;;
25073;SDS011;13066;52.042;5.648;2023-07-16T02:32:57;10.63;;;3.28;;
25073;SDS011;13066;52.042;5.648;2023-07-16T02:35:27;9.95;;;3.60;;
25073;SDS011;13066;52.042;5.648;2023-07-16T02:37:56;13.10;;;3.38;;
25073;SDS011;13066;52.042;5.648;2023-07-16T02:40:25;16.13;;;3.42;;
25073;SDS011;13066;52.042;5.648;2023-07-16T02:42:53;11.68;;;3.35;;
25073;SDS011;13066;52.042;5.648;2023-07-16T02:45:21;8.48;;;3.70;;
25073;SDS011;13066;52.042;5.648;2023-07-16T02:47:49;10.73;;;3.15;;
25073;SDS011;13066;52.042;5.648;2023-07-16T02:50:17;13.68;;;3.50;;
25073;SDS011;13066;52.042;5.648;2023-07-16T02:52:45;10.98;;;3.30;;
25073;SDS011;13066;52.042;5.648;2023-07-16T02:55:14;11.48;;;3.10;;
25073;SDS011;13066;52.042;5.648;2023-07-16T02:57:42;15.68;;;3.55;;
25073;SDS011;13066;52.042;5.648;2023-07-16T03:00:10;8.82;;;3.92;;
25073;SDS011;13066;52.042;5.648;2023-07-16T03:02:38;10.02;;;3.05;;
25073;SDS011;13066;52.042;5.648;2023-07-16T03:05:07;12.38;;;4.20;;
25073;SDS011;13066;52.042;5.648;2023-07-16T03:07:35;11.15;;;3.58;;
25073;SDS011;13066;52.042;5.648;2023-07-16T03:10:03;21.80;;;3.55;;
25073;SDS011;13066;52.042;5.648;2023-07-16T03:12:33;15.20;;;4.07;;
25073;SDS011;13066;52.042;5.648;2023-07-16T03:15:01;13.57;;;3.30;;
25073;SDS011;13066;52.042;5.648;2023-07-16T03:17:28;12.80;;;3.60;;
25073;SDS011;13066;52.042;5.648;2023-07-16T03:19:56;8.68;;;3.30;;
25073;SDS011;13066;52.042;5.648;2023-07-16T03:22:24;8.85;;;3.20;;
25073;SDS011;13066;52.042;5.648;2023-07-16T03:24:52;15.90;;;3.67;;
25073;SDS011;13066;52.042;5.648;2023-07-16T03:27:20;15.65;;;3.80;;
25073;SDS011;13066;52.042;5.648;2023-07-16T03:29:57;21.98;;;3.75;;
25073;SDS011;13066;52.042;5.648;2023-07-16T03:32:26;11.32;;;3.35;;
25073;SDS011;13066;52.042;5.648;2023-07-16T03:35:08;9.02;;;2.72;;
25073;SDS011;13066;52.042;5.648;2023-07-16T03:37:36;10.95;;;3.30;;
25073;SDS011;13066;52.042;5.648;2023-07-16T03:40:12;11.65;;;3.28;;
25073;SDS011;13066;52.042;5.648;2023-07-16T03:42:43;12.20;;;3.42;;
25073;SDS011;13066;52.042;5.648;2023-07-16T03:45:12;10.02;;;3.00;;
25073;SDS011;13066;52.042;5.648;2023-07-16T03:47:41;13.18;;;3.50;;
25073;SDS011;13066;52.042;5.648;2023-07-16T03:50:09;8.25;;;3.58;;
25073;SDS011;13066;52.042;5.648;2023-07-16T03:52:37;15.32;;;4.05;;
25073;SDS011;13066;52.042;5.648;2023-07-16T03:55:06;13.07;;;3.40;;
25073;SDS011;13066;52.042;5.648;2023-07-16T03:57:34;11.40;;;3.63;;
25073;SDS011;13066;52.042;5.648;2023-07-16T04:00:02;15.65;;;3.95;;
25073;SDS011;13066;52.042;5.648;2023-07-16T04:02:40;9.98;;;4.80;;
25073;SDS011;13066;52.042;5.648;2023-07-16T04:05:15;12.43;;;3.95;;
25073;SDS011;13066;52.042;5.648;2023-07-16T04:07:43;10.30;;;4.00;;
25073;SDS011;13066;52.042;5.648;2023-07-16T04:10:10;10.50;;;3.90;;
25073;SDS011;13066;52.042;5.648;2023-07-16T04:12:38;12.75;;;4.50;;
25073;SDS011;13066;52.042;5.648;2023-07-16T04:15:07;10.88;;;3.50;;
25073;SDS011;13066;52.042;5.648;2023-07-16T04:17:36;9.93;;;3.83;;
25073;SDS011;13066;52.042;5.648;2023-07-16T04:20:06;13.07;;;4.32;;
25073;SDS011;13066;52.042;5.648;2023-07-16T04:22:34;10.95;;;4.28;;
25073;SDS011;13066;52.042;5.648;2023-07-16T04:25:03;14.23;;;4.38;;
25073;SDS011;13066;52.042;5.648;2023-07-16T04:27:31;10.70;;;3.92;;
25073;SDS011;13066;52.042;5.648;2023-07-16T04:29:59;10.77;;;4.03;;
25073;SDS011;13066;52.042;5.648;2023-07-16T04:32:27;16.30;;;4.60;;
25073;SDS011;13066;52.042;5.648;2023-07-16T04:34:55;12.50;;;4.03;;
25073;SDS011;13066;52.042;5.648;2023-07-16T04:37:24;13.77;;;4.40;;
25073;SDS011;13066;52.042;5.648;2023-07-16T04:39:52;14.35;;;4.30;;
25073;SDS011;13066;52.042;5.648;2023-07-16T04:42:20;13.90;;;4.45;;
25073;SDS011;13066;52.042;5.648;2023-07-16T04:44:48;12.98;;;4.47;;
25073;SDS011;13066;52.042;5.648;2023-07-16T04:47:16;16.15;;;3.70;;
25073;SDS011;13066;52.042;5.648;2023-07-16T04:49:43;14.38;;;4.13;;
25073;SDS011;13066;52.042;5.648;2023-07-16T04:52:11;12.40;;;3.92;;
25073;SDS011;13066;52.042;5.648;2023-07-16T04:54:40;10.10;;;4.32;;
25073;SDS011;13066;52.042;5.648;2023-07-16T04:57:08;17.38;;;4.38;;
25073;SDS011;13066;52.042;5.648;2023-07-16T04:59:36;16.23;;;4.65;;
25073;SDS011;13066;52.042;5.648;2023-07-16T05:02:04;9.73;;;4.07;;
25073;SDS011;13066;52.042;5.648;2023-07-16T05:04:33;13.90;;;4.60;;
25073;SDS011;13066;52.042;5.648;2023-07-16T05:07:02;13.23;;;4.55;;
25073;SDS011;13066;52.042;5.648;2023-07-16T05:09:30;8.63;;;4.25;;
25073;SDS011;13066;52.042;5.648;2023-07-16T05:11:59;10.27;;;4.50;;
25073;SDS011;13066;52.042;5.648;2023-07-16T05:14:28;10.63;;;4.47;;
25073;SDS011;13066;52.042;5.648;2023-07-16T05:16:56;11.55;;;4.32;;
25073;SDS011;13066;52.042;5.648;2023-07-16T05:19:24;20.02;;;5.72;;
25073;SDS011;13066;52.042;5.648;2023-07-16T05:21:52;11.32;;;4.60;;
25073;SDS011;13066;52.042;5.648;2023-07-16T05:24:20;11.45;;;4.32;;
25073;SDS011;13066;52.042;5.648;2023-07-16T05:26:47;18.00;;;4.95;;
25073;SDS011;13066;52.042;5.648;2023-07-16T05:29:17;13.43;;;4.90;;
25073;SDS011;13066;52.042;5.648;2023-07-16T05:31:45;12.35;;;4.32;;
25073;SDS011;13066;52.042;5.648;2023-07-16T05:34:14;13.63;;;4.68;;
25073;SDS011;13066;52.042;5.648;2023-07-16T05:36:42;14.68;;;4.85;;
25073;SDS011;13066;52.042;5.648;2023-07-16T05:39:11;17.77;;;5.57;;
25073;SDS011;13066;52.042;5.648;2023-07-16T05:41:40;13.57;;;5.18;;
25073;SDS011;13066;52.042;5.648;2023-07-16T05:44:08;14.90;;;5.10;;
25073;SDS011;13066;52.042;5.648;2023-07-16T05:46:37;10.07;;;5.18;;
25073;SDS011;13066;52.042;5.648;2023-07-16T05:49:05;14.63;;;5.30;;
25073;SDS011;13066;52.042;5.648;2023-07-16T05:51:33;8.77;;;4.93;;
25073;SDS011;13066;52.042;5.648;2023-07-16T05:54:01;15.45;;;5.40;;
25073;SDS011;13066;52.042;5.648;2023-07-16T05:56:29;11.45;;;4.57;;
25073;SDS011;13066;52.042;5.648;2023-07-16T05:58:57;14.25;;;5.60;;
25073;SDS011;13066;52.042;5.648;2023-07-16T06:01:25;11.70;;;5.03;;
25073;SDS011;13066;52.042;5.648;2023-07-16T06:03:54;11.32;;;4.65;;
25073;SDS011;13066;52.042;5.648;2023-07-16T06:06:22;8.48;;;4.88;;
25073;SDS011;13066;52.042;5.648;2023-07-16T06:08:50;13.98;;;4.78;;
25073;SDS011;13066;52.042;5.648;2023-07-16T06:11:18;13.88;;;5.25;;
25073;SDS011;13066;52.042;5.648;2023-07-16T06:13:46;12.70;;;4.88;;
25073;SDS011;13066;52.042;5.648;2023-07-16T06:16:13;11.95;;;5.07;;
25073;SDS011;13066;52.042;5.648;2023-07-16T06:18:42;14.63;;;5.93;;
25073;SDS011;13066;52.042;5.648;2023-07-16T06:21:11;13.07;;;5.80;;
25073;SDS011;13066;52.042;5.648;2023-07-16T06:23:39;10.80;;;5.13;;
25073;SDS011;13066;52.042;5.648;2023-07-16T06:26:07;13.35;;;5.25;;
25073;SDS011;13066;52.042;5.648;2023-07-16T06:28:35;12.55;;;5.30;;
25073;SDS011;13066;52.042;5.648;2023-07-16T06:31:03;12.68;;;5.53;;
25073;SDS011;13066;52.042;5.648;2023-07-16T06:33:31;11.70;;;4.93;;
25073;SDS011;13066;52.042;5.648;2023-07-16T06:36:00;18.60;;;6.30;;
25073;SDS011;13066;52.042;5.648;2023-07-16T06:38:29;14.88;;;6.00;;
25073;SDS011;13066;52.042;5.648;2023-07-16T06:40:57;16.38;;;5.28;;
25073;SDS011;13066;52.042;5.648;2023-07-16T06:43:25;12.77;;;5.28;;
25073;SDS011;13066;52.042;5.648;2023-07-16T06:45:53;13.68;;;5.97;;
25073;SDS011;13066;52.042;5.648;2023-07-16T06:48:21;14.77;;;5.80;;
25073;SDS011;13066;52.042;5.648;2023-07-16T06:50:49;13.40;;;5.53;;
25073;SDS011;13066;52.042;5.648;2023-07-16T06:53:17;12.85;;;5.57;;
25073;SDS011;13066;52.042;5.648;2023-07-16T06:55:48;15.63;;;5.90;;
25073;SDS011;13066;52.042;5.648;2023-07-16T06:58:16;12.85;;;5.80;;
25073;SDS011;13066;52.042;5.648;2023-07-16T07:00:44;17.98;;;5.07;;
25073;SDS011;13066;52.042;5.648;2023-07-16T07:03:12;13.50;;;5.30;;
25073;SDS011;13066;52.042;5.648;2023-07-16T07:05:41;13.30;;;5.63;;
25073;SDS011;13066;52.042;5.648;2023-07-16T07:08:08;16.27;;;5.72;;
25073;SDS011;13066;52.042;5.648;2023-07-16T07:10:36;18.90;;;5.95;;
25073;SDS011;13066;52.042;5.648;2023-07-16T07:13:07;16.73;;;5.28;;
25073;SDS011;13066;52.042;5.648;2023-07-16T07:15:35;17.95;;;6.35;;
25073;SDS011;13066;52.042;5.648;2023-07-16T07:18:03;13.65;;;6.00;;
25073;SDS011;13066;52.042;5.648;2023-07-16T07:20:31;12.63;;;5.50;;
25073;SDS011;13066;52.042;5.648;2023-07-16T07:22:59;20.23;;;5.95;;
25073;SDS011;13066;52.042;5.648;2023-07-16T07:25:29;15.75;;;5.70;;
25073;SDS011;13066;52.042;5.648;2023-07-16T07:27:57;15.30;;;6.05;;
25073;SDS011;13066;52.042;5.648;2023-07-16T07:30:26;12.73;;;5.93;;
25073;SDS011;13066;52.042;5.648;2023-07-16T07:32:54;18.42;;;6.50;;
25073;SDS011;13066;52.042;5.648;2023-07-16T07:35:22;14.88;;;5.75;;
25073;SDS011;13066;52.042;5.648;2023-07-16T07:37:50;15.80;;;5.85;;
25073;SDS011;13066;52.042;5.648;2023-07-16T07:40:18;13.23;;;5.70;;
25073;SDS011;13066;52.042;5.648;2023-07-16T07:42:46;12.63;;;5.75;;
25073;SDS011;13066;52.042;5.648;2023-07-16T07:45:14;12.82;;;6.20;;
25073;SDS011;13066;52.042;5.648;2023-07-16T07:47:43;15.25;;;5.53;;
25073;SDS011;13066;52.042;5.648;2023-07-16T07:50:11;14.98;;;6.05;;
25073;SDS011;13066;52.042;5.648;2023-07-16T07:52:39;16.67;;;5.43;;
25073;SDS011;13066;52.042;5.648;2023-07-16T07:55:07;16.30;;;6.22;;
25073;SDS011;13066;52.042;5.648;2023-07-16T07:57:36;14.20;;;5.80;;
25073;SDS011;13066;52.042;5.648;2023-07-16T08:00:04;12.90;;;5.50;;
25073;SDS011;13066;52.042;5.648;2023-07-16T08:02:40;14.63;;;6.05;;
25073;SDS011;13066;52.042;5.648;2023-07-16T08:05:09;13.38;;;6.25;;
25073;SDS011;13066;52.042;5.648;2023-07-16T08:07:37;11.18;;;5.93;;
25073;SDS011;13066;52.042;5.648;2023-07-16T08:10:05;15.20;;;5.75;;
25073;SDS011;13066;52.042;5.648;2023-07-16T08:12:34;11.60;;;6.03;;
25073;SDS011;13066;52.042;5.648;2023-07-16T08:15:01;15.52;;;5.53;;
25073;SDS011;13066;52.042;5.648;2023-07-16T08:17:30;13.85;;;5.88;;
25073;SDS011;13066;52.042;5.648;2023-07-16T08:19:58;11.40;;;5.60;;
25073;SDS011;13066;52.042;5.648;2023-07-16T08:22:28;24.60;;;6.55;;
25073;SDS011;13066;52.042;5.648;2023-07-16T08:24:55;15.35;;;6.25;;
25073;SDS011;13066;52.042;5.648;2023-07-16T08:27:23;16.00;;;5.53;;
25073;SDS011;13066;52.042;5.648;2023-07-16T08:29:52;16.15;;;6.13;;
25073;SDS011;13066;52.042;5.648;2023-07-16T08:32:19;17.08;;;6.15;;
25073;SDS011;13066;52.042;5.648;2023-07-16T08:34:47;10.70;;;5.32;;
25073;SDS011;13066;52.042;5.648;2023-07-16T08:37:15;18.35;;;5.93;;
25073;SDS011;13066;52.042;5.648;2023-07-16T08:39:45;17.00;;;5.78;;
25073;SDS011;13066;52.042;5.648;2023-07-16T08:42:12;13.32;;;5.65;;
25073;SDS011;13066;52.042;5.648;2023-07-16T08:44:41;12.23;;;5.60;;
25073;SDS011;13066;52.042;5.648;2023-07-16T08:47:09;13.80;;;5.78;;
25073;SDS011;13066;52.042;5.648;2023-07-16T08:49:37;15.50;;;6.13;;
25073;SDS011;13066;52.042;5.648;2023-07-16T08:52:07;15.48;;;6.15;;
25073;SDS011;13066;52.042;5.648;2023-07-16T08:54:35;17.13;;;5.70;;
25073;SDS011;13066;52.042;5.648;2023-07-16T08:57:05;17.95;;;6.30;;
25073;SDS011;13066;52.042;5.648;2023-07-16T08:59:33;13.55;;;5.25;;
25073;SDS011;13066;52.042;5.648;2023-07-16T09:02:02;12.73;;;5.10;;
25073;SDS011;13066;52.042;5.648;2023-07-16T09:04:30;12.35;;;6.18;;
25073;SDS011;13066;52.042;5.648;2023-07-16T09:06:59;10.88;;;6.07;;
25073;SDS011;13066;52.042;5.648;2023-07-16T09:09:27;17.90;;;6.20;;
25073;SDS011;13066;52.042;5.648;2023-07-16T09:11:56;16.30;;;6.45;;
25073;SDS011;13066;52.042;5.648;2023-07-16T09:14:25;13.95;;;5.60;;
25073;SDS011;13066;52.042;5.648;2023-07-16T09:16:53;11.27;;;5.50;;
25073;SDS011;13066;52.042;5.648;2023-07-16T09:19:21;19.70;;;6.15;;
25073;SDS011;13066;52.042;5.648;2023-07-16T09:21:49;18.90;;;5.60;;
25073;SDS011;13066;52.042;5.648;2023-07-16T09:24:18;12.27;;;5.45;;
25073;SDS011;13066;52.042;5.648;2023-07-16T09:26:47;17.35;;;5.90;;
25073;SDS011;13066;52.042;5.648;2023-07-16T09:29:16;11.98;;;5.70;;
25073;SDS011;13066;52.042;5.648;2023-07-16T09:31:55;12.98;;;5.70;;
25073;SDS011;13066;52.042;5.648;2023-07-16T09:34:26;17.58;;;5.97;;
25073;SDS011;13066;52.042;5.648;2023-07-16T09:36:54;15.63;;;5.32;;
25073;SDS011;13066;52.042;5.648;2023-07-16T09:39:23;18.38;;;5.93;;
25073;SDS011;13066;52.042;5.648;2023-07-16T09:41:53;14.65;;;5.63;;
25073;SDS011;13066;52.042;5.648;2023-07-16T09:44:22;15.57;;;6.20;;
25073;SDS011;13066;52.042;5.648;2023-07-16T09:46:50;14.60;;;5.53;;
25073;SDS011;13066;52.042;5.648;2023-07-16T09:49:20;17.40;;;6.00;;
25073;SDS011;13066;52.042;5.648;2023-07-16T09:51:48;13.25;;;5.43;;
25073;SDS011;13066;52.042;5.648;2023-07-16T09:54:18;8.82;;;5.68;;
25073;SDS011;13066;52.042;5.648;2023-07-16T09:56:48;10.30;;;5.32;;
25073;SDS011;13066;52.042;5.648;2023-07-16T09:59:20;14.50;;;6.13;;
25073;SDS011;13066;52.042;5.648;2023-07-16T10:01:49;14.68;;;5.72;;
25073;SDS011;13066;52.042;5.648;2023-07-16T10:04:18;10.75;;;5.30;;
25073;SDS011;13066;52.042;5.648;2023-07-16T10:06:48;11.38;;;5.10;;
25073;SDS011;13066;52.042;5.648;2023-07-16T10:09:33;13.02;;;5.35;;
25073;SDS011;13066;52.042;5.648;2023-07-16T10:12:11;13.20;;;5.28;;
25073;SDS011;13066;52.042;5.648;2023-07-16T10:14:41;12.15;;;5.32;;
25073;SDS011;13066;52.042;5.648;2023-07-16T10:17:13;12.90;;;5.63;;
25073;SDS011;13066;52.042;5.648;2023-07-16T10:19:47;14.15;;;5.18;;
25073;SDS011;13066;52.042;5.648;2023-07-16T10:22:19;12.20;;;5.15;;
25073;SDS011;13066;52.042;5.648;2023-07-16T10:24:59;13.30;;;5.45;;
25073;SDS011;13066;52.042;5.648;2023-07-16T10:27:27;14.50;;;5.10;;
25073;SDS011;13066;52.042;5.648;2023-07-16T10:29:56;12.40;;;5.90;;
25073;SDS011;13066;52.042;5.648;2023-07-16T10:32:26;16.88;;;5.32;;
25073;SDS011;13066;52.042;5.648;2023-07-16T10:34:55;17.83;;;5.95;;
25073;SDS011;13066;52.042;5.648;2023-07-16T10:37:24;17.85;;;5.25;;
25073;SDS011;13066;52.042;5.648;2023-07-16T10:39:53;14.63;;;5.82;;
25073;SDS011;13066;52.042;5.648;2023-07-16T10:42:22;11.88;;;5.15;;
25073;SDS011;13066;52.042;5.648;2023-07-16T10:44:51;12.98;;;5.47;;
25073;SDS011;13066;52.042;5.648;2023-07-16T10:47:22;12.73;;;5.22;;
25073;SDS011;13066;52.042;5.648;2023-07-16T10:49:51;17.80;;;5.40;;
25073;SDS011;13066;52.042;5.648;2023-07-16T10:52:22;11.45;;;5.03;;
25073;SDS011;13066;52.042;5.648;2023-07-16T10:54:50;12.20;;;5.07;;
25073;SDS011;13066;52.042;5.648;2023-07-16T10:57:21;10.98;;;5.57;;
25073;SDS011;13066;52.042;5.648;2023-07-16T10:59:50;13.98;;;4.97;;
25073;SDS011;13066;52.042;5.648;2023-07-16T11:02:20;11.50;;;4.78;;
25073;SDS011;13066;52.042;5.648;2023-07-16T11:04:49;18.25;;;5.40;;
25073;SDS011;13066;52.042;5.648;2023-07-16T11:07:20;9.80;;;5.43;;
25073;SDS011;13066;52.042;5.648;2023-07-16T11:09:50;19.35;;;5.70;;
25073;SDS011;13066;52.042;5.648;2023-07-16T11:12:20;13.50;;;5.00;;
25073;SDS011;13066;52.042;5.648;2023-07-16T11:14:49;11.43;;;5.10;;
25073;SDS011;13066;52.042;5.648;2023-07-16T11:17:18;11.55;;;5.32;;
25073;SDS011;13066;52.042;5.648;2023-07-16T11:19:47;9.55;;;4.95;;
25073;SDS011;13066;52.042;5.648;2023-07-16T11:22:16;19.33;;;5.32;;
25073;SDS011;13066;52.042;5.648;2023-07-16T11:24:46;14.30;;;5.03;;
25073;SDS011;13066;52.042;5.648;2023-07-16T11:27:16;7.07;;;4.32;;
25073;SDS011;13066;52.042;5.648;2023-07-16T11:29:45;14.95;;;5.30;;
25073;SDS011;13066;52.042;5.648;2023-07-16T11:32:14;14.00;;;5.47;;
25073;SDS011;13066;52.042;5.648;2023-07-16T11:34:53;12.80;;;5.10;;
25073;SDS011;13066;52.042;5.648;2023-07-16T11:37:21;14.05;;;5.68;;
25073;SDS011;13066;52.042;5.648;2023-07-16T11:39:50;7.93;;;4.38;;
25073;SDS011;13066;52.042;5.648;2023-07-16T11:42:23;11.77;;;4.78;;
25073;SDS011;13066;52.042;5.648;2023-07-16T11:44:51;8.48;;;4.25;;
25073;SDS011;13066;52.042;5.648;2023-07-16T11:47:19;11.23;;;4.95;;
25073;SDS011;13066;52.042;5.648;2023-07-16T11:49:47;9.80;;;4.80;;
25073;SDS011;13066;52.042;5.648;2023-07-16T11:52:18;11.52;;;5.18;;
25073;SDS011;13066;52.042;5.648;2023-07-16T11:54:46;10.23;;;5.32;;
25073;SDS011;13066;52.042;5.648;2023-07-16T11:57:16;10.70;;;4.63;;
25073;SDS011;13066;52.042;5.648;2023-07-16T11:59:44;11.20;;;5.00;;
25073;SDS011;13066;52.042;5.648;2023-07-16T12:02:12;10.88;;;4.70;;
25073;SDS011;13066;52.042;5.648;2023-07-16T12:04:41;9.98;;;4.50;;
25073;SDS011;13066;52.042;5.648;2023-07-16T12:07:09;11.30;;;4.45;;
25073;SDS011;13066;52.042;5.648;2023-07-16T12:09:37;12.20;;;4.45;;
25073;SDS011;13066;52.042;5.648;2023-07-16T12:12:06;7.35;;;4.00;;
25073;SDS011;13066;52.042;5.648;2023-07-16T12:14:35;10.30;;;4.47;;
25073;SDS011;13066;52.042;5.648;2023-07-16T12:17:03;18.25;;;5.65;;
25073;SDS011;13066;52.042;5.648;2023-07-16T12:19:31;8.88;;;4.55;;
25073;SDS011;13066;52.042;5.648;2023-07-16T12:21:59;14.25;;;5.05;;
25073;SDS011;13066;52.042;5.648;2023-07-16T12:24:27;13.43;;;4.78;;
25073;SDS011;13066;52.042;5.648;2023-07-16T12:26:55;16.92;;;4.93;;
25073;SDS011;13066;52.042;5.648;2023-07-16T12:29:23;13.13;;;5.00;;
25073;SDS011;13066;52.042;5.648;2023-07-16T12:31:52;11.18;;;4.93;;
25073;SDS011;13066;52.042;5.648;2023-07-16T12:34:20;14.20;;;5.60;;
25073;SDS011;13066;52.042;5.648;2023-07-16T12:36:48;9.55;;;4.57;;
25073;SDS011;13066;52.042;5.648;2023-07-16T12:39:16;11.40;;;4.10;;
25073;SDS011;13066;52.042;5.648;2023-07-16T12:41:45;11.80;;;5.40;;
25073;SDS011;13066;52.042;5.648;2023-07-16T12:44:13;13.38;;;5.28;;
25073;SDS011;13066;52.042;5.648;2023-07-16T12:46:41;10.73;;;4.90;;
25073;SDS011;13066;52.042;5.648;2023-07-16T12:49:11;13.20;;;5.57;;
25073;SDS011;13066;52.042;5.648;2023-07-16T12:51:38;16.35;;;5.03;;
25073;SDS011;13066;52.042;5.648;2023-07-16T12:54:06;10.32;;;4.68;;
25073;SDS011;13066;52.042;5.648;2023-07-16T12:56:34;9.35;;;4.40;;
25073;SDS011;13066;52.042;5.648;2023-07-16T12:59:02;15.57;;;4.70;;
25073;SDS011;13066;52.042;5.648;2023-07-16T13:01:30;8.10;;;4.47;;
25073;SDS011;13066;52.042;5.648;2023-07-16T13:03:58;7.65;;;4.65;;
25073;SDS011;13066;52.042;5.648;2023-07-16T13:06:27;14.48;;;4.97;;
25073;SDS011;13066;52.042;5.648;2023-07-16T13:08:55;8.23;;;4.57;;
25073;SDS011;13066;52.042;5.648;2023-07-16T13:11:23;12.52;;;3.92;;
25073;SDS011;13066;52.042;5.648;2023-07-16T13:13:52;12.20;;;4.20;;
25073;SDS011;13066;52.042;5.648;2023-07-16T13:16:20;8.60;;;4.40;;
25073;SDS011;13066;52.042;5.648;2023-07-16T13:18:48;11.50;;;4.22;;
25073;SDS011;13066;52.042;5.648;2023-07-16T13:21:16;12.00;;;4.15;;
25073;SDS011;13066;52.042;5.648;2023-07-16T13:23:45;11.73;;;4.07;;
25073;SDS011;13066;52.042;5.648;2023-07-16T13:26:13;11.02;;;4.60;;
25073;SDS011;13066;52.042;5.648;2023-07-16T13:28:41;10.98;;;4.55;;
25073;SDS011;13066;52.042;5.648;2023-07-16T13:31:09;19.00;;;5.05;;
25073;SDS011;13066;52.042;5.648;2023-07-16T13:33:37;7.90;;;4.43;;
25073;SDS011;13066;52.042;5.648;2023-07-16T13:36:05;10.40;;;4.50;;
25073;SDS011;13066;52.042;5.648;2023-07-16T13:38:33;7.93;;;4.25;;
25073;SDS011;13066;52.042;5.648;2023-07-16T13:41:02;10.15;;;4.05;;
25073;SDS011;13066;52.042;5.648;2023-07-16T13:43:30;8.00;;;4.05;;
25073;SDS011;13066;52.042;5.648;2023-07-16T13:45:58;14.02;;;3.30;;
25073;SDS011;13066;52.042;5.648;2023-07-16T13:48:29;11.00;;;3.50;;
25073;SDS011;13066;52.042;5.648;2023-07-16T13:51:13;10.73;;;3.28;;
25073;SDS011;13066;52.042;5.648;2023-07-16T13:53:41;7.97;;;3.00;;
25073;SDS011;13066;52.042;5.648;2023-07-16T13:56:11;9.23;;;2.80;;
25073;SDS011;13066;52.042;5.648;2023-07-16T13:58:39;6.43;;;3.08;;
25073;SDS011;13066;52.042;5.648;2023-07-16T14:01:07;7.50;;;3.05;;
25073;SDS011;13066;52.042;5.648;2023-07-16T14:03:35;5.38;;;2.75;;
25073;SDS011;13066;52.042;5.648;2023-07-16T14:06:03;11.68;;;3.33;;
25073;SDS011;13066;52.042;5.648;2023-07-16T14:08:44;9.18;;;2.65;;
25073;SDS011;13066;52.042;5.648;2023-07-16T14:11:39;8.00;;;3.00;;
25073;SDS011;13066;52.042;5.648;2023-07-16T14:14:27;5.88;;;2.70;;
25073;SDS011;13066;52.042;5.648;2023-07-16T14:17:16;4.90;;;2.40;;
25073;SDS011;13066;52.042;5.648;2023-07-16T14:20:08;6.45;;;2.47;;
25073;SDS011;13066;52.042;5.648;2023-07-16T14:22:41;8.38;;;2.58;;
25073;SDS011;13066;52.042;5.648;2023-07-16T14:25:50;8.00;;;2.47;;
25073;SDS011;13066;52.042;5.648;2023-07-16T14:28:22;7.95;;;2.65;;
25073;SDS011;13066;52.042;5.648;2023-07-16T14:30:52;7.55;;;2.53;;
25073;SDS011;13066;52.042;5.648;2023-07-16T14:33:24;11.73;;;2.42;;
25073;SDS011;13066;52.042;5.648;2023-07-16T14:35:57;11.30;;;2.60;;
25073;SDS011;13066;52.042;5.648;2023-07-16T14:38:30;9.07;;;2.30;;
25073;SDS011;13066;52.042;5.648;2023-07-16T14:40:59;5.32;;;2.08;;
25073;SDS011;13066;52.042;5.648;2023-07-16T14:43:33;9.02;;;2.30;;
25073;SDS011;13066;52.042;5.648;2023-07-16T14:46:06;9.73;;;2.20;;
25073;SDS011;13066;52.042;5.648;2023-07-16T14:48:43;8.02;;;2.10;;
25073;SDS011;13066;52.042;5.648;2023-07-16T14:51:20;5.00;;;2.05;;
25073;SDS011;13066;52.042;5.648;2023-07-16T14:53:49;8.18;;;2.03;;